sensor_id;sensor_type;location;lat;lon;timestamp;pressure;altitude;pressure_sealevel;temperature;humidity
62712;BME280;48772;55.586;37.730;2023-02-11T00:09:59;99295.75;;;-1.68;100.00
62712;BME280;48772;55.586;37.730;2023-02-11T00:13:06;99188.50;;;-2.34;100.00
62712;BME280;48772;55.586;37.730;2023-02-11T00:15:41;99198.72;;;-2.28;100.00
62712;BME280;48772;55.586;37.730;2023-02-11T00:22:09;99201.56;;;-2.34;100.00
62712;BME280;48772;55.586;37.730;2023-02-11T00:25:13;99269.03;;;-1.99;100.00
62712;BME280;48772;55.586;37.730;2023-02-11T00:28:02;99196.50;;;-2.39;100.00
62712;BME280;48772;55.586;37.730;2023-02-11T00:30:57;99304.03;;;-1.80;100.00
62712;BME280;48772;55.586;37.730;2023-02-11T00:33:55;99317.09;;;-1.80;100.00
62712;BME280;48772;55.586;37.730;2023-02-11T00:36:36;99289.28;;;-2.06;100.00
62712;BME280;48772;55.586;37.730;2023-02-11T00:39:35;99247.09;;;-2.18;100.00
62712;BME280;48772;55.586;37.730;2023-02-11T00:42:43;99265.84;;;-2.07;100.00
62712;BME280;48772;55.586;37.730;2023-02-11T00:46:13;99333.88;;;-1.87;100.00
62712;BME280;48772;55.586;37.730;2023-02-11T00:53:34;99246.53;;;-2.26;100.00
62712;BME280;48772;55.586;37.730;2023-02-11T01:55:15;99288.59;;;-2.86;100.00
62712;BME280;48772;55.586;37.730;2023-02-11T01:59:38;99360.13;;;-2.41;100.00
62712;BME280;48772;55.586;37.730;2023-02-11T02:03:35;99244.81;;;-3.02;100.00
62712;BME280;48772;55.586;37.730;2023-02-11T02:06:16;99295.91;;;-2.71;100.00
62712;BME280;48772;55.586;37.730;2023-02-11T02:08:57;99327.63;;;-2.57;100.00
62712;BME280;48772;55.586;37.730;2023-02-11T02:11:37;99273.56;;;-2.79;100.00
62712;BME280;48772;55.586;37.730;2023-02-11T02:14:23;99218.81;;;-3.05;100.00
62712;BME280;48772;55.586;37.730;2023-02-11T02:17:09;99351.78;;;-2.26;100.00
62712;BME280;48772;55.586;37.730;2023-02-11T02:38:45;99274.97;;;-2.43;100.00
62712;BME280;48772;55.586;37.730;2023-02-11T02:41:28;99307.53;;;-2.29;100.00
62712;BME280;48772;55.586;37.730;2023-02-11T02:43:56;99240.78;;;-2.62;100.00
62712;BME280;48772;55.586;37.730;2023-02-11T02:46:29;99320.31;;;-2.21;100.00
62712;BME280;48772;55.586;37.730;2023-02-11T02:48:58;99309.97;;;-2.24;100.00
62712;BME280;48772;55.586;37.730;2023-02-11T03:41:09;99277.09;;;-2.30;100.00
62712;BME280;48772;55.586;37.730;2023-02-11T03:43:47;99331.88;;;-2.04;100.00
62712;BME280;48772;55.586;37.730;2023-02-11T03:46:18;99229.63;;;-2.65;100.00
62712;BME280;48772;55.586;37.730;2023-02-11T03:48:56;99217.69;;;-2.72;100.00
62712;BME280;48772;55.586;37.730;2023-02-11T03:51:24;99332.09;;;-2.10;100.00
62712;BME280;48772;55.586;37.730;2023-02-11T03:53:56;99275.53;;;-2.35;100.00
62712;BME280;48772;55.586;37.730;2023-02-11T03:56:34;99310.69;;;-2.19;100.00
62712;BME280;48772;55.586;37.730;2023-02-11T03:59:21;99212.66;;;-2.78;100.00
62712;BME280;48772;55.586;37.730;2023-02-11T04:02:01;99266.66;;;-2.54;100.00
62712;BME280;48772;55.586;37.730;2023-02-11T04:04:36;99243.78;;;-2.72;100.00
62712;BME280;48772;55.586;37.730;2023-02-11T04:07:03;99279.50;;;-2.48;100.00
62712;BME280;48772;55.586;37.730;2023-02-11T04:09:29;99271.88;;;-2.54;100.00
62712;BME280;48772;55.586;37.730;2023-02-11T04:11:55;99301.88;;;-2.41;100.00
62712;BME280;48772;55.586;37.730;2023-02-11T04:14:22;99247.34;;;-2.75;100.00
62712;BME280;48772;55.586;37.730;2023-02-11T04:17:09;99280.03;;;-2.63;100.00
62712;BME280;48772;55.586;37.730;2023-02-11T04:19:36;99310.03;;;-2.52;100.00
62712;BME280;48772;55.586;37.730;2023-02-11T04:22:06;99255.78;;;-2.93;100.00
62712;BME280;48772;55.586;37.730;2023-02-11T04:24:35;99258.94;;;-2.83;100.00
62712;BME280;48772;55.586;37.730;2023-02-11T04:27:09;99280.50;;;-2.78;100.00
62712;BME280;48772;55.586;37.730;2023-02-11T04:29:39;99200.38;;;-3.25;100.00
62712;BME280;48772;55.586;37.730;2023-02-11T04:32:14;99246.53;;;-3.03;100.00
62712;BME280;48772;55.586;37.730;2023-02-11T04:34:40;99268.78;;;-2.91;100.00
62712;BME280;48772;55.586;37.730;2023-02-11T04:37:14;99308.88;;;-2.68;100.00
62712;BME280;48772;55.586;37.730;2023-02-11T04:39:56;99292.66;;;-2.77;100.00
62712;BME280;48772;55.586;37.730;2023-02-11T04:42:22;99206.88;;;-3.38;100.00
62712;BME280;48772;55.586;37.730;2023-02-11T04:44:50;99192.41;;;-3.49;100.00
62712;BME280;48772;55.586;37.730;2023-02-11T04:47:20;99260.63;;;-3.08;100.00
62712;BME280;48772;55.586;37.730;2023-02-11T04:54:00;99272.16;;;-3.15;100.00
62712;BME280;48772;55.586;37.730;2023-02-11T04:57:07;99203.28;;;-3.62;100.00
62712;BME280;48772;55.586;37.730;2023-02-11T04:59:38;99303.06;;;-3.03;100.00
62712;BME280;48772;55.586;37.730;2023-02-11T05:33:00;99202.16;;;-3.54;100.00
62712;BME280;48772;55.586;37.730;2023-02-11T05:36:21;99329.41;;;-2.85;100.00
62712;BME280;48772;55.586;37.730;2023-02-11T07:11:00;99220.25;;;-1.54;100.00
62712;BME280;48772;55.586;37.730;2023-02-11T07:19:53;99314.56;;;-1.14;100.00
62712;BME280;48772;55.586;37.730;2023-02-11T07:22:24;99198.53;;;-1.78;100.00
62712;BME280;48772;55.586;37.730;2023-02-11T07:24:53;99283.69;;;-0.83;100.00
62712;BME280;48772;55.586;37.730;2023-02-11T07:27:34;99203.19;;;-1.41;100.00
62712;BME280;48772;55.586;37.730;2023-02-11T07:33:33;99257.06;;;-1.59;100.00
62712;BME280;48772;55.586;37.730;2023-02-11T07:36:09;99286.78;;;-0.95;100.00
62712;BME280;48772;55.586;37.730;2023-02-11T08:00:25;99256.41;;;-0.58;100.00
62712;BME280;48772;55.586;37.730;2023-02-11T08:03:03;99218.19;;;-0.62;100.00
62712;BME280;48772;55.586;37.730;2023-02-11T08:05:38;99278.03;;;-0.53;100.00
62712;BME280;48772;55.586;37.730;2023-02-11T08:08:18;99278.53;;;-0.65;100.00
62712;BME280;48772;55.586;37.730;2023-02-11T08:11:13;99223.44;;;-1.03;100.00
62712;BME280;48772;55.586;37.730;2023-02-11T08:13:51;99284.63;;;-1.07;100.00
62712;BME280;48772;55.586;37.730;2023-02-11T08:16:32;99307.13;;;-1.25;100.00
62712;BME280;48772;55.586;37.730;2023-02-11T08:24:22;99213.94;;;-0.44;100.00
62712;BME280;48772;55.586;37.730;2023-02-11T08:27:02;99281.41;;;0.67;100.00
62712;BME280;48772;55.586;37.730;2023-02-11T08:29:51;99201.16;;;0.98;100.00
62712;BME280;48772;55.586;37.730;2023-02-11T08:38:10;99166.63;;;-1.21;100.00
62712;BME280;48772;55.586;37.730;2023-02-11T09:05:17;99213.28;;;-1.75;100.00
62712;BME280;48772;55.586;37.730;2023-02-11T09:27:16;99167.28;;;-2.02;100.00
62712;BME280;48772;55.586;37.730;2023-02-11T09:57:13;99081.06;;;-2.24;100.00
62712;BME280;48772;55.586;37.730;2023-02-11T10:08:49;99120.19;;;-2.01;100.00
62712;BME280;48772;55.586;37.730;2023-02-11T10:20:34;99051.03;;;-2.12;100.00
62712;BME280;48772;55.586;37.730;2023-02-11T10:23:16;99078.06;;;-1.92;100.00
62712;BME280;48772;55.586;37.730;2023-02-11T10:25:51;99063.00;;;-1.85;100.00
62712;BME280;48772;55.586;37.730;2023-02-11T10:28:26;99008.22;;;-2.08;100.00
62712;BME280;48772;55.586;37.730;2023-02-11T10:33:32;99055.19;;;-1.65;100.00
62712;BME280;48772;55.586;37.730;2023-02-11T10:36:05;98958.66;;;-2.31;100.00
62712;BME280;48772;55.586;37.730;2023-02-11T10:38:36;99048.25;;;-1.66;100.00
62712;BME280;48772;55.586;37.730;2023-02-11T10:41:11;98990.19;;;-1.94;100.00
62712;BME280;48772;55.586;37.730;2023-02-11T10:43:42;99007.78;;;-1.78;100.00
62712;BME280;48772;55.586;37.730;2023-02-11T10:46:16;99001.16;;;-1.65;100.00
62712;BME280;48772;55.586;37.730;2023-02-11T10:48:49;98944.13;;;-1.75;100.00
62712;BME280;48772;55.586;37.730;2023-02-11T10:51:21;99027.84;;;-1.37;100.00
62712;BME280;48772;55.586;37.730;2023-02-11T10:56:34;98938.56;;;-1.68;100.00
62712;BME280;48772;55.586;37.730;2023-02-11T10:59:26;98981.44;;;-1.32;100.00
62712;BME280;48772;55.586;37.730;2023-02-11T11:04:44;98929.34;;;-1.36;100.00
62712;BME280;48772;55.586;37.730;2023-02-11T11:07:22;98876.31;;;-1.58;100.00
62712;BME280;48772;55.586;37.730;2023-02-11T11:09:55;98922.78;;;-1.26;100.00
62712;BME280;48772;55.586;37.730;2023-02-11T11:32:02;98946.66;;;-0.95;100.00
62712;BME280;48772;55.586;37.730;2023-02-11T11:39:30;98811.66;;;-1.73;100.00
62712;BME280;48772;55.586;37.730;2023-02-11T11:42:00;98898.41;;;-1.08;100.00
62712;BME280;48772;55.586;37.730;2023-02-11T11:44:56;98836.09;;;-1.56;100.00
62712;BME280;48772;55.586;37.730;2023-02-11T11:47:31;98841.38;;;-1.37;100.00
62712;BME280;48772;55.586;37.730;2023-02-11T11:55:48;98824.69;;;-1.53;100.00
62712;BME280;48772;55.586;37.730;2023-02-11T11:58:19;98824.47;;;-1.49;100.00
62712;BME280;48772;55.586;37.730;2023-02-11T12:00:58;98762.06;;;-1.75;100.00
62712;BME280;48772;55.586;37.730;2023-02-11T12:28:50;98777.00;;;-1.97;100.00
62712;BME280;48772;55.586;37.730;2023-02-11T12:31:26;98834.13;;;-1.69;100.00
62712;BME280;48772;55.586;37.730;2023-02-11T12:45:15;98824.59;;;-1.70;100.00
62712;BME280;48772;55.586;37.730;2023-02-11T12:55:45;98662.56;;;-2.44;100.00
62712;BME280;48772;55.586;37.730;2023-02-11T12:58:20;98789.63;;;-1.86;100.00
62712;BME280;48772;55.586;37.730;2023-02-11T13:00:57;98788.13;;;-1.73;100.00
62712;BME280;48772;55.586;37.730;2023-02-11T13:03:30;98742.88;;;-1.92;100.00
62712;BME280;48772;55.586;37.730;2023-02-11T13:06:13;98731.97;;;-2.02;100.00
62712;BME280;48772;55.586;37.730;2023-02-11T13:08:46;98770.84;;;-1.76;100.00
62712;BME280;48772;55.586;37.730;2023-02-11T13:11:23;98749.56;;;-1.87;100.00
62712;BME280;48772;55.586;37.730;2023-02-11T13:14:14;98644.84;;;-2.38;100.00
62712;BME280;48772;55.586;37.730;2023-02-11T13:16:47;98694.44;;;-1.99;100.00
62712;BME280;48772;55.586;37.730;2023-02-11T13:22:07;98691.19;;;-2.04;100.00
62712;BME280;48772;55.586;37.730;2023-02-11T13:24:47;98704.81;;;-1.98;100.00
62712;BME280;48772;55.586;37.730;2023-02-11T13:30:26;98701.28;;;-1.78;100.00
62712;BME280;48772;55.586;37.730;2023-02-11T13:35:39;98631.59;;;-2.15;100.00
62712;BME280;48772;55.586;37.730;2023-02-11T13:38:26;98656.53;;;-1.89;100.00
62712;BME280;48772;55.586;37.730;2023-02-11T13:41:12;98717.72;;;-1.76;100.00
62712;BME280;48772;55.586;37.730;2023-02-11T13:43:40;98680.53;;;-1.81;100.00
62712;BME280;48772;55.586;37.730;2023-02-11T13:46:11;98652.84;;;-2.04;100.00
62712;BME280;48772;55.586;37.730;2023-02-11T13:53:20;98665.19;;;-1.89;100.00
62712;BME280;48772;55.586;37.730;2023-02-11T13:56:36;98626.66;;;-2.02;100.00
62712;BME280;48772;55.586;37.730;2023-02-11T14:08:57;98561.28;;;-2.36;100.00
62712;BME280;48772;55.586;37.730;2023-02-11T14:12:16;98612.41;;;-1.95;100.00
62712;BME280;48772;55.586;37.730;2023-02-11T14:15:18;98570.56;;;-2.49;100.00
62712;BME280;48772;55.586;37.730;2023-02-11T14:17:55;98545.41;;;-2.32;100.00
62712;BME280;48772;55.586;37.730;2023-02-11T14:20:50;98455.22;;;-2.74;100.00
62712;BME280;48772;55.586;37.730;2023-02-11T14:23:38;98496.31;;;-2.61;100.00
62712;BME280;48772;55.586;37.730;2023-02-11T14:28:45;98435.69;;;-2.66;100.00
62712;BME280;48772;55.586;37.730;2023-02-11T14:31:21;98490.31;;;-2.44;100.00
62712;BME280;48772;55.586;37.730;2023-02-11T14:34:07;98566.59;;;-2.02;100.00
62712;BME280;48772;55.586;37.730;2023-02-11T14:39:36;98571.91;;;-2.04;100.00
62712;BME280;48772;55.586;37.730;2023-02-11T14:42:17;98597.19;;;-2.04;100.00
62712;BME280;48772;55.586;37.730;2023-02-11T14:44:52;98443.03;;;-2.74;100.00
62712;BME280;48772;55.586;37.730;2023-02-11T14:51:23;98510.09;;;-2.22;100.00
62712;BME280;48772;55.586;37.730;2023-02-11T14:54:38;98514.78;;;-2.28;100.00
62712;BME280;48772;55.586;37.730;2023-02-11T14:58:15;98526.59;;;-2.03;100.00
62712;BME280;48772;55.586;37.730;2023-02-11T15:05:12;98503.78;;;-1.99;100.00
62712;BME280;48772;55.586;37.730;2023-02-11T15:07:49;98438.16;;;-2.27;100.00
62712;BME280;48772;55.586;37.730;2023-02-11T15:10:32;98467.38;;;-2.02;100.00
62712;BME280;48772;55.586;37.730;2023-02-11T15:13:01;98450.31;;;-2.26;100.00
62712;BME280;48772;55.586;37.730;2023-02-11T15:15:30;98381.81;;;-2.48;100.00
62712;BME280;48772;55.586;37.730;2023-02-11T15:18:01;98411.09;;;-2.25;100.00
62712;BME280;48772;55.586;37.730;2023-02-11T15:20:54;98334.50;;;-2.59;100.00
62712;BME280;48772;55.586;37.730;2023-02-11T15:23:56;98350.78;;;-2.54;100.00
62712;BME280;48772;55.586;37.730;2023-02-11T15:27:17;98455.41;;;-1.89;100.00
62712;BME280;48772;55.586;37.730;2023-02-11T15:30:42;98426.63;;;-1.88;100.00
62712;BME280;48772;55.586;37.730;2023-02-11T15:34:22;98431.44;;;-1.97;100.00
62712;BME280;48772;55.586;37.730;2023-02-11T15:37:56;98304.59;;;-2.52;100.00
62712;BME280;48772;55.586;37.730;2023-02-11T15:40:52;98349.25;;;-2.24;100.00
62712;BME280;48772;55.586;37.730;2023-02-11T15:45:33;98394.94;;;-1.82;100.00
62712;BME280;48772;55.586;37.730;2023-02-11T15:48:11;98286.16;;;-2.49;100.00
62712;BME280;48772;55.586;37.730;2023-02-11T15:50:56;98290.41;;;-2.47;100.00
62712;BME280;48772;55.586;37.730;2023-02-11T15:54:23;98314.28;;;-2.37;100.00
62712;BME280;48772;55.586;37.730;2023-02-11T15:56:58;98358.78;;;-2.06;100.00
62712;BME280;48772;55.586;37.730;2023-02-11T15:59:31;98290.31;;;-2.45;100.00
62712;BME280;48772;55.586;37.730;2023-02-11T16:02:35;98376.72;;;-1.83;100.00
62712;BME280;48772;55.586;37.730;2023-02-11T16:05:47;98317.22;;;-2.11;100.00
62712;BME280;48772;55.586;37.730;2023-02-11T16:08:35;98369.97;;;-1.87;100.00
62712;BME280;48772;55.586;37.730;2023-02-11T16:11:59;98311.59;;;-2.36;100.00
62712;BME280;48772;55.586;37.730;2023-02-11T16:22:52;98325.78;;;-2.07;100.00
62712;BME280;48772;55.586;37.730;2023-02-11T16:25:21;98289.56;;;-2.30;100.00
62712;BME280;48772;55.586;37.730;2023-02-11T16:27:51;98285.41;;;-2.34;100.00
62712;BME280;48772;55.586;37.730;2023-02-11T16:30:53;98327.22;;;-2.02;100.00
62712;BME280;48772;55.586;37.730;2023-02-11T16:33:24;98254.84;;;-2.49;100.00
62712;BME280;48772;55.586;37.730;2023-02-11T16:35:59;98312.56;;;-2.04;100.00
62712;BME280;48772;55.586;37.730;2023-02-11T16:38:31;98301.50;;;-2.09;100.00
62712;BME280;48772;55.586;37.730;2023-02-11T16:40:59;98269.56;;;-2.14;100.00
62712;BME280;48772;55.586;37.730;2023-02-11T16:43:27;98292.56;;;-2.05;100.00
62712;BME280;48772;55.586;37.730;2023-02-11T16:45:58;98229.69;;;-2.50;100.00
62712;BME280;48772;55.586;37.730;2023-02-11T16:49:13;98333.25;;;-1.84;100.00
62712;BME280;48772;55.586;37.730;2023-02-11T16:52:07;98230.19;;;-2.27;100.00
62712;BME280;48772;55.586;37.730;2023-02-11T16:54:57;98269.25;;;-2.08;100.00
62712;BME280;48772;55.586;37.730;2023-02-11T16:58:01;98185.19;;;-2.47;100.00
62712;BME280;48772;55.586;37.730;2023-02-11T17:00:43;98191.31;;;-2.48;100.00
62712;BME280;48772;55.586;37.730;2023-02-11T17:03:36;98244.84;;;-2.24;100.00
62712;BME280;48772;55.586;37.730;2023-02-11T17:06:20;98245.84;;;-2.27;100.00
62712;BME280;48772;55.586;37.730;2023-02-11T17:09:06;98205.09;;;-2.29;100.00
62712;BME280;48772;55.586;37.730;2023-02-11T17:11:58;98269.06;;;-2.05;100.00
62712;BME280;48772;55.586;37.730;2023-02-11T17:14:50;98263.50;;;-1.82;100.00
62712;BME280;48772;55.586;37.730;2023-02-11T17:17:38;98245.28;;;-2.16;100.00
62712;BME280;48772;55.586;37.730;2023-02-11T17:20:28;98175.97;;;-2.22;100.00
62712;BME280;48772;55.586;37.730;2023-02-11T17:22:55;98202.19;;;-2.23;100.00
62712;BME280;48772;55.586;37.730;2023-02-11T17:25:24;98266.03;;;-1.81;100.00
62712;BME280;48772;55.586;37.730;2023-02-11T17:27:56;98197.03;;;-2.25;100.00
62712;BME280;48772;55.586;37.730;2023-02-11T17:30:39;98223.94;;;-2.07;100.00
62712;BME280;48772;55.586;37.730;2023-02-11T17:33:13;98257.19;;;-1.78;100.00
62712;BME280;48772;55.586;37.730;2023-02-11T17:35:55;98133.00;;;-2.47;100.00
62712;BME280;48772;55.586;37.730;2023-02-11T17:38:30;98215.69;;;-2.00;100.00
62712;BME280;48772;55.586;37.730;2023-02-11T17:41:36;98111.34;;;-2.49;100.00
62712;BME280;48772;55.586;37.730;2023-02-11T17:44:04;98125.00;;;-2.44;100.00
62712;BME280;48772;55.586;37.730;2023-02-11T17:46:30;98141.81;;;-2.17;100.00
62712;BME280;48772;55.586;37.730;2023-02-11T17:48:57;98160.34;;;-2.06;100.00
62712;BME280;48772;55.586;37.730;2023-02-11T17:51:32;98118.91;;;-2.28;100.00
62712;BME280;48772;55.586;37.730;2023-02-11T17:54:04;98147.91;;;-2.01;100.00
62712;BME280;48772;55.586;37.730;2023-02-11T17:56:33;98103.44;;;-2.15;100.00
62712;BME280;48772;55.586;37.730;2023-02-11T17:59:01;98129.78;;;-2.04;100.00
62712;BME280;48772;55.586;37.730;2023-02-11T18:01:29;98192.41;;;-1.72;100.00
62712;BME280;48772;55.586;37.730;2023-02-11T18:03:55;98129.34;;;-1.97;100.00
62712;BME280;48772;55.586;37.730;2023-02-11T18:06:22;98142.84;;;-2.04;100.00
62712;BME280;48772;55.586;37.730;2023-02-11T18:08:49;98177.41;;;-1.68;100.00
62712;BME280;48772;55.586;37.730;2023-02-11T18:11:18;98199.38;;;-1.72;100.00
62712;BME280;48772;55.586;37.730;2023-02-11T18:13:46;98074.28;;;-2.08;100.00
62712;BME280;48772;55.586;37.730;2023-02-11T18:16:22;98151.69;;;-1.76;100.00
62712;BME280;48772;55.586;37.730;2023-02-11T18:23:03;98049.00;;;-2.23;100.00
62712;BME280;48772;55.586;37.730;2023-02-11T18:25:42;98070.56;;;-1.88;100.00
62712;BME280;48772;55.586;37.730;2023-02-11T18:28:37;98128.34;;;-1.63;100.00
62712;BME280;48772;55.586;37.730;2023-02-11T18:31:08;98024.25;;;-2.31;100.00
62712;BME280;48772;55.586;37.730;2023-02-11T18:33:42;98121.53;;;-1.66;100.00
62712;BME280;48772;55.586;37.730;2023-02-11T18:39:42;98048.00;;;-2.05;100.00
62712;BME280;48772;55.586;37.730;2023-02-11T18:42:09;98006.59;;;-2.26;100.00
62712;BME280;48772;55.586;37.730;2023-02-11T18:44:35;98094.38;;;-1.63;100.00
62712;BME280;48772;55.586;37.730;2023-02-11T18:47:02;98058.06;;;-1.83;100.00
62712;BME280;48772;55.586;37.730;2023-02-11T18:49:28;97985.56;;;-2.23;100.00
62712;BME280;48772;55.586;37.730;2023-02-11T18:51:55;98077.59;;;-1.59;100.00
62712;BME280;48772;55.586;37.730;2023-02-11T18:54:24;98063.03;;;-1.63;100.00
62712;BME280;48772;55.586;37.730;2023-02-11T18:56:50;97993.00;;;-2.17;100.00
62712;BME280;48772;55.586;37.730;2023-02-11T18:59:18;98021.09;;;-1.91;100.00
62712;BME280;48772;55.586;37.730;2023-02-11T19:01:47;98057.72;;;-1.62;100.00
62712;BME280;48772;55.586;37.730;2023-02-11T19:04:17;98033.50;;;-1.79;100.00
62712;BME280;48772;55.586;37.730;2023-02-11T19:06:49;98062.78;;;-1.59;100.00
62712;BME280;48772;55.586;37.730;2023-02-11T19:09:18;97992.16;;;-2.02;100.00
62712;BME280;48772;55.586;37.730;2023-02-11T19:11:45;98003.81;;;-1.78;100.00
62712;BME280;48772;55.586;37.730;2023-02-11T19:14:14;98055.84;;;-1.60;100.00
62712;BME280;48772;55.586;37.730;2023-02-11T19:16:43;98010.00;;;-1.79;100.00
62712;BME280;48772;55.586;37.730;2023-02-11T19:19:12;97940.72;;;-2.16;100.00
62712;BME280;48772;55.586;37.730;2023-02-11T19:21:43;98044.19;;;-1.54;100.00
62712;BME280;48772;55.586;37.730;2023-02-11T19:24:11;97998.22;;;-1.72;100.00
62712;BME280;48772;55.586;37.730;2023-02-11T19:26:41;97983.66;;;-1.90;100.00
62712;BME280;48772;55.586;37.730;2023-02-11T19:29:08;97997.88;;;-1.66;100.00
62712;BME280;48772;55.586;37.730;2023-02-11T19:31:38;98029.94;;;-1.49;100.00
62712;BME280;48772;55.586;37.730;2023-02-11T19:34:10;98025.00;;;-1.53;100.00
62712;BME280;48772;55.586;37.730;2023-02-11T19:36:37;97981.56;;;-1.70;100.00
62712;BME280;48772;55.586;37.730;2023-02-11T19:39:09;97940.31;;;-2.08;100.00
62712;BME280;48772;55.586;37.730;2023-02-11T19:41:42;98004.13;;;-1.69;100.00
62712;BME280;48772;55.586;37.730;2023-02-11T19:44:13;97898.09;;;-2.16;100.00
62712;BME280;48772;55.586;37.730;2023-02-11T19:46:40;97950.81;;;-1.80;100.00
62712;BME280;48772;55.586;37.730;2023-02-11T19:49:09;97996.66;;;-1.45;100.00
62712;BME280;48772;55.586;37.730;2023-02-11T19:51:39;97957.38;;;-1.73;100.00
62712;BME280;48772;55.586;37.730;2023-02-11T19:54:32;98022.09;;;-1.49;100.00
62712;BME280;48772;55.586;37.730;2023-02-11T19:57:21;98005.50;;;-1.48;100.00
62712;BME280;48772;55.586;37.730;2023-02-11T20:05:25;97941.63;;;-1.72;100.00
62712;BME280;48772;55.586;37.730;2023-02-11T20:08:05;97923.41;;;-1.73;100.00
62712;BME280;48772;55.586;37.730;2023-02-11T20:11:14;97862.97;;;-2.11;100.00
62712;BME280;48772;55.586;37.730;2023-02-11T20:13:55;97864.78;;;-2.11;100.00
62712;BME280;48772;55.586;37.730;2023-02-11T20:18:10;97859.38;;;-2.08;100.00
62712;BME280;48772;55.586;37.730;2023-02-11T20:21:07;97924.75;;;-1.66;100.00
62712;BME280;48772;55.586;37.730;2023-02-11T20:27:30;97973.03;;;-1.44;100.00
62712;BME280;48772;55.586;37.730;2023-02-11T20:30:17;97871.75;;;-1.82;100.00
62712;BME280;48772;55.586;37.730;2023-02-11T20:32:47;97845.38;;;-2.07;100.00
62712;BME280;48772;55.586;37.730;2023-02-11T20:35:14;97942.88;;;-1.49;100.00
62712;BME280;48772;55.586;37.730;2023-02-11T20:37:40;97881.59;;;-1.87;100.00
62712;BME280;48772;55.586;37.730;2023-02-11T20:40:06;97906.28;;;-1.63;100.00
62712;BME280;48772;55.586;37.730;2023-02-11T20:42:32;97859.84;;;-2.02;100.00
62712;BME280;48772;55.586;37.730;2023-02-11T20:44:58;97900.50;;;-1.68;100.00
62712;BME280;48772;55.586;37.730;2023-02-11T20:47:26;97884.63;;;-1.65;100.00
62712;BME280;48772;55.586;37.730;2023-02-11T20:49:54;97824.97;;;-2.01;100.00
62712;BME280;48772;55.586;37.730;2023-02-11T20:52:43;97883.50;;;-1.61;100.00
62712;BME280;48772;55.586;37.730;2023-02-11T20:55:15;97796.72;;;-2.08;100.00
62712;BME280;48772;55.586;37.730;2023-02-11T20:57:46;97830.19;;;-2.01;100.00
62712;BME280;48772;55.586;37.730;2023-02-11T21:00:23;97897.22;;;-1.58;100.00
62712;BME280;48772;55.586;37.730;2023-02-11T21:03:02;97862.78;;;-1.78;100.00
62712;BME280;48772;55.586;37.730;2023-02-11T21:05:29;97878.28;;;-1.61;100.00
62712;BME280;48772;55.586;37.730;2023-02-11T21:07:56;97814.63;;;-2.02;100.00
62712;BME280;48772;55.586;37.730;2023-02-11T21:10:25;97819.09;;;-2.04;100.00
62712;BME280;48772;55.586;37.730;2023-02-11T21:13:01;97818.38;;;-1.92;100.00
62712;BME280;48772;55.586;37.730;2023-02-11T21:15:29;97874.00;;;-1.62;100.00
62712;BME280;48772;55.586;37.730;2023-02-11T21:18:13;97812.75;;;-2.00;100.00
62712;BME280;48772;55.586;37.730;2023-02-11T21:21:34;97806.44;;;-1.96;100.00
62712;BME280;48772;55.586;37.730;2023-02-11T21:24:39;97856.63;;;-1.63;100.00
62712;BME280;48772;55.586;37.730;2023-02-11T21:27:25;97790.47;;;-2.06;100.00
62712;BME280;48772;55.586;37.730;2023-02-11T21:29:58;97903.13;;;-1.40;100.00
62712;BME280;48772;55.586;37.730;2023-02-11T21:32:26;97902.31;;;-1.41;100.00
62712;BME280;48772;55.586;37.730;2023-02-11T21:34:52;97838.16;;;-1.74;100.00
62712;BME280;48772;55.586;37.730;2023-02-11T21:37:18;97912.44;;;-1.36;100.00
62712;BME280;48772;55.586;37.730;2023-02-11T21:39:45;97863.34;;;-1.59;100.00
62712;BME280;48772;55.586;37.730;2023-02-11T21:42:11;97884.66;;;-1.37;100.00
62712;BME280;48772;55.586;37.730;2023-02-11T21:44:38;97847.69;;;-1.59;100.00
62712;BME280;48772;55.586;37.730;2023-02-11T21:47:10;97882.97;;;-1.38;100.00
62712;BME280;48772;55.586;37.730;2023-02-11T21:49:55;97809.88;;;-1.82;100.00
62712;BME280;48772;55.586;37.730;2023-02-11T21:52:33;97782.16;;;-1.98;100.00
62712;BME280;48772;55.586;37.730;2023-02-11T21:55:25;97882.78;;;-1.35;100.00
62712;BME280;48772;55.586;37.730;2023-02-11T21:57:52;97876.44;;;-1.31;100.00
62712;BME280;48772;55.586;37.730;2023-02-11T22:00:18;97840.69;;;-1.59;100.00
62712;BME280;48772;55.586;37.730;2023-02-11T22:02:44;97838.72;;;-1.55;100.00
62712;BME280;48772;55.586;37.730;2023-02-11T22:05:10;97860.84;;;-1.33;100.00
62712;BME280;48772;55.586;37.730;2023-02-11T22:07:39;97806.44;;;-1.68;100.00
62712;BME280;48772;55.586;37.730;2023-02-11T22:10:11;97779.56;;;-1.84;100.00
62712;BME280;48772;55.586;37.730;2023-02-11T22:12:38;97810.25;;;-1.60;100.00
62712;BME280;48772;55.586;37.730;2023-02-11T22:15:05;97866.06;;;-1.33;100.00
62712;BME280;48772;55.586;37.730;2023-02-11T22:17:32;97823.72;;;-1.52;100.00
62712;BME280;48772;55.586;37.730;2023-02-11T22:20:04;97842.06;;;-1.39;100.00
62712;BME280;48772;55.586;37.730;2023-02-11T22:22:41;97847.03;;;-1.49;100.00
62712;BME280;48772;55.586;37.730;2023-02-11T22:25:11;97772.50;;;-1.82;100.00
62712;BME280;48772;55.586;37.730;2023-02-11T22:27:44;97816.69;;;-1.51;100.00
62712;BME280;48772;55.586;37.730;2023-02-11T22:30:20;97810.16;;;-1.58;100.00
62712;BME280;48772;55.586;37.730;2023-02-11T22:32:55;97854.22;;;-1.38;100.00
62712;BME280;48772;55.586;37.730;2023-02-11T22:35:34;97813.72;;;-1.59;100.00
62712;BME280;48772;55.586;37.730;2023-02-11T22:38:02;97834.97;;;-1.37;100.00
62712;BME280;48772;55.586;37.730;2023-02-11T22:40:28;97849.34;;;-1.30;100.00
62712;BME280;48772;55.586;37.730;2023-02-11T22:42:54;97803.72;;;-1.53;100.00
62712;BME280;48772;55.586;37.730;2023-02-11T22:45:20;97851.97;;;-1.30;100.00
62712;BME280;48772;55.586;37.730;2023-02-11T22:47:46;97856.84;;;-1.24;100.00
62712;BME280;48772;55.586;37.730;2023-02-11T22:50:13;97852.25;;;-1.21;100.00
62712;BME280;48772;55.586;37.730;2023-02-11T22:52:39;97820.63;;;-1.44;100.00